createdAt,value
2022-09-22T00:01:07.808Z,3.50
2022-09-22T00:03:41.889Z,3.50
2022-09-22T00:06:12.170Z,3.60
2022-09-22T00:08:41.949Z,4.10
2022-09-22T00:11:21.635Z,4.40
2022-09-22T00:13:52.394Z,4.40
2022-09-22T00:16:25.916Z,3.70
2022-09-22T00:18:52.663Z,3.40
2022-09-22T00:21:22.419Z,3.80
2022-09-22T00:23:49.870Z,3.70
2022-09-22T00:26:19.539Z,3.40
2022-09-22T00:28:47.801Z,3.30
2022-09-22T00:31:17.674Z,3.20
2022-09-22T00:33:46.311Z,3.10
2022-09-22T00:36:14.720Z,3.00
2022-09-22T00:38:41.968Z,3.10
2022-09-22T00:41:15.732Z,3.00
2022-09-22T00:43:46.989Z,3.00
2022-09-22T00:46:19.328Z,3.00
2022-09-22T00:48:54.980Z,2.90
2022-09-22T00:51:25.713Z,3.00
2022-09-22T00:53:54.253Z,3.00
2022-09-22T00:56:31.780Z,3.00
2022-09-22T00:59:06.988Z,3.00
2022-09-22T01:01:40.253Z,3.00
2022-09-22T01:04:07.956Z,2.80
2022-09-22T01:06:37.155Z,2.70
2022-09-22T01:09:04.260Z,2.70
2022-09-22T01:11:32.947Z,2.70
2022-09-22T01:14:29.289Z,2.80
2022-09-22T01:17:09.516Z,2.70
2022-09-22T01:20:01.023Z,2.60
2022-09-22T01:22:57.912Z,2.50
2022-09-22T01:25:39.627Z,2.50
2022-09-22T01:28:36.236Z,2.50
2022-09-22T01:31:18.967Z,2.40
2022-09-22T01:34:16.744Z,2.30
2022-09-22T01:37:00.861Z,2.40
2022-09-22T01:39:37.970Z,2.70
2022-09-22T01:42:18.189Z,2.40
2022-09-22T01:45:02.411Z,2.20
2022-09-22T01:47:53.288Z,2.20
2022-09-22T01:50:33.088Z,2.30
2022-09-22T01:53:06.193Z,2.20
2022-09-22T01:55:39.115Z,2.30
2022-09-22T01:58:12.741Z,2.40
2022-09-22T02:00:44.023Z,2.30
2022-09-22T02:03:17.263Z,2.20
2022-09-22T02:05:52.363Z,2.40
2022-09-22T02:08:50.771Z,2.20
2022-09-22T02:11:17.449Z,2.10
2022-09-22T02:13:44.947Z,2.10
2022-09-22T02:16:14.675Z,2.10
2022-09-22T02:18:54.331Z,2.00
2022-09-22T02:21:21.872Z,1.90
2022-09-22T02:23:49.731Z,1.90
2022-09-22T02:26:23.690Z,1.90
2022-09-22T02:28:53.973Z,1.80
2022-09-22T02:31:23.509Z,1.80
2022-09-22T02:33:51.926Z,1.90
2022-09-22T02:37:00.120Z,1.80
2022-09-22T02:39:39.016Z,1.70
2022-09-22T02:42:11.445Z,1.70
2022-09-22T02:44:47.298Z,1.70
2022-09-22T02:47:19.454Z,1.70
2022-09-22T02:49:48.043Z,1.60
2022-09-22T02:52:15.158Z,1.60
2022-09-22T02:54:41.806Z,1.70
2022-09-22T02:57:09.754Z,1.70
2022-09-22T02:59:36.434Z,1.60
2022-09-22T03:02:03.093Z,1.60
2022-09-22T03:04:29.786Z,1.60
2022-09-22T03:06:56.578Z,1.50
2022-09-22T03:09:23.240Z,1.50
2022-09-22T03:11:49.885Z,1.50
2022-09-22T03:14:16.557Z,1.40
2022-09-22T03:16:43.229Z,1.40
2022-09-22T03:19:10.092Z,1.40
2022-09-22T03:21:36.747Z,1.40
2022-09-22T03:24:03.952Z,1.30
2022-09-22T03:26:30.643Z,1.40
2022-09-22T03:28:57.459Z,1.40
2022-09-22T03:31:24.261Z,1.40
2022-09-22T03:33:52.834Z,1.30
2022-09-22T03:36:19.930Z,1.80
2022-09-22T03:38:46.671Z,1.90
2022-09-22T03:41:13.329Z,1.90
2022-09-22T03:43:39.994Z,1.60
2022-09-22T03:46:07.041Z,1.40
2022-09-22T03:48:33.752Z,1.30
2022-09-22T03:51:00.474Z,1.20
2022-09-22T03:53:27.833Z,1.20
2022-09-22T03:56:09.133Z,1.30
2022-09-22T03:58:37.310Z,1.40
2022-09-22T04:01:05.625Z,1.40
2022-09-22T04:03:32.836Z,1.30
2022-09-22T04:06:00.114Z,1.30
2022-09-22T04:08:26.861Z,1.20
2022-09-22T04:10:54.044Z,1.20
2022-09-22T04:13:20.755Z,1.20
2022-09-22T04:15:47.438Z,1.20
2022-09-22T04:18:14.497Z,1.10
2022-09-22T04:20:43.540Z,1.40
2022-09-22T04:23:11.379Z,2.00
2022-09-22T04:25:38.104Z,1.80
2022-09-22T04:28:05.928Z,1.50
2022-09-22T04:30:33.826Z,1.30
2022-09-22T04:33:01.132Z,1.30
2022-09-22T04:35:28.424Z,1.20
2022-09-22T04:37:56.156Z,1.10
2022-09-22T04:40:24.120Z,1.10
2022-09-22T04:42:51.450Z,1.10
2022-09-22T04:45:18.536Z,1.20
2022-09-22T04:47:50.004Z,1.20
2022-09-22T04:50:18.352Z,1.30
2022-09-22T04:52:46.883Z,1.30
2022-09-22T04:55:14.247Z,1.30
2022-09-22T04:57:41.643Z,1.20
2022-09-22T05:00:09.944Z,1.50
2022-09-22T05:02:36.667Z,1.30
2022-09-22T05:05:05.504Z,1.60
2022-09-22T05:07:44.858Z,1.90
2022-09-22T05:10:14.942Z,1.80
2022-09-22T05:12:42.470Z,1.60
2022-09-22T05:15:11.019Z,1.90
2022-09-22T05:17:38.343Z,2.40
2022-09-22T05:20:05.934Z,1.90
2022-09-22T05:22:37.655Z,1.60
2022-09-22T05:25:08.581Z,1.40
2022-09-22T05:27:35.853Z,1.30
2022-09-22T05:30:02.503Z,1.40
2022-09-22T05:32:29.143Z,1.40
2022-09-22T05:34:55.925Z,1.60
2022-09-22T05:37:22.627Z,1.90
2022-09-22T05:39:49.295Z,1.90
2022-09-22T05:42:15.921Z,2.10
2022-09-22T05:44:42.569Z,1.70
2022-09-22T05:47:09.271Z,2.20
2022-09-22T05:49:35.907Z,2.40
2022-09-22T05:52:03.169Z,2.30
2022-09-22T05:54:29.866Z,2.10
2022-09-22T05:56:56.592Z,2.20
2022-09-22T05:59:23.256Z,2.60
2022-09-22T06:01:49.919Z,2.90
2022-09-22T06:04:16.618Z,3.20
2022-09-22T06:06:43.352Z,2.90
2022-09-22T06:09:10.035Z,2.80
2022-09-22T06:11:36.802Z,2.80
2022-09-22T06:14:03.525Z,3.00
2022-09-22T06:16:31.731Z,3.30
2022-09-22T06:18:58.422Z,3.50
2022-09-22T06:21:25.886Z,3.80
2022-09-22T06:23:52.709Z,3.80
2022-09-22T06:26:19.395Z,3.70
2022-09-22T06:28:46.994Z,3.80
2022-09-22T06:31:15.283Z,4.10
2022-09-22T06:33:48.159Z,4.20
2022-09-22T06:36:23.150Z,4.20
2022-09-22T06:38:50.782Z,4.30
2022-09-22T06:41:17.487Z,4.40
2022-09-22T06:43:44.469Z,4.70
2022-09-22T06:46:13.546Z,4.80
2022-09-22T06:48:40.500Z,5.10
2022-09-22T06:51:07.272Z,5.60
2022-09-22T06:53:33.971Z,7.20
2022-09-22T06:56:03.272Z,8.90
2022-09-22T06:58:35.542Z,9.50
2022-09-22T07:01:14.886Z,10.40
2022-09-22T07:03:43.051Z,10.80
2022-09-22T07:06:10.950Z,11.40
2022-09-22T07:08:39.416Z,12.40
2022-09-22T07:11:08.340Z,13.50
2022-09-22T07:13:38.974Z,14.00
2022-09-22T07:16:12.043Z,14.80
2022-09-22T07:18:44.465Z,15.40
2022-09-22T07:21:16.670Z,16.70
2022-09-22T07:23:44.228Z,18.50
2022-09-22T07:26:17.037Z,18.60
2022-09-22T07:28:46.814Z,19.90
2022-09-22T07:31:15.348Z,19.60
2022-09-22T07:33:44.032Z,19.90
2022-09-22T07:36:18.882Z,20.70
2022-09-22T07:38:51.315Z,19.90
2022-09-22T07:41:23.039Z,21.20
2022-09-22T07:43:52.225Z,20.80
2022-09-22T07:46:19.799Z,21.90
2022-09-22T07:48:47.933Z,21.60
2022-09-22T07:51:23.473Z,21.50
2022-09-22T07:54:07.349Z,22.70
2022-09-22T07:56:43.163Z,22.20
2022-09-22T07:59:11.837Z,22.60
2022-09-22T08:01:44.196Z,21.90
2022-09-22T08:04:12.525Z,22.80
2022-09-22T08:06:39.175Z,22.70
2022-09-22T08:09:06.875Z,23.10
2022-09-22T08:11:33.889Z,23.60
2022-09-22T08:14:06.397Z,23.60
2022-09-22T08:16:36.073Z,22.50
2022-09-22T08:19:10.443Z,22.00
2022-09-22T08:21:47.773Z,22.00
2022-09-22T08:24:21.212Z,23.70
2022-09-22T08:26:50.290Z,23.80
2022-09-22T08:29:16.986Z,23.20
2022-09-22T08:31:45.353Z,23.60
2022-09-22T08:34:14.069Z,23.10
2022-09-22T08:36:46.107Z,22.10
2022-09-22T08:39:12.794Z,21.80
2022-09-22T08:41:55.144Z,23.80
2022-09-22T08:44:46.436Z,24.60
2022-09-22T08:48:08.133Z,23.60
2022-09-22T08:51:18.183Z,23.40
2022-09-22T08:53:50.315Z,23.50
2022-09-22T08:56:36.812Z,24.00
2022-09-22T08:59:14.192Z,22.70
2022-09-22T09:01:55.772Z,24.90
2022-09-22T09:04:44.903Z,23.50
2022-09-22T09:07:11.599Z,22.10
2022-09-22T09:10:00.352Z,21.20
2022-09-22T09:12:52.981Z,21.70
2022-09-22T09:15:30.546Z,22.80
2022-09-22T09:18:02.765Z,21.00
2022-09-22T09:20:42.107Z,22.70
2022-09-22T09:23:21.286Z,24.30
2022-09-22T09:25:52.286Z,22.90
2022-09-22T09:28:27.710Z,22.60
2022-09-22T09:31:05.867Z,22.40
2022-09-22T09:33:48.501Z,23.30
2022-09-22T09:36:18.551Z,22.90
2022-09-22T09:38:51.789Z,24.40
2022-09-22T09:41:24.959Z,22.40
2022-09-22T09:43:54.443Z,23.50
2022-09-22T09:46:39.833Z,23.50
2022-09-22T09:49:17.791Z,23.50
2022-09-22T09:51:51.513Z,23.50
2022-09-22T09:54:19.378Z,23.60
2022-09-22T09:57:06.472Z,23.80
2022-09-22T09:59:52.817Z,24.90
2022-09-22T10:02:27.350Z,22.80
2022-09-22T10:05:07.646Z,22.40
2022-09-22T10:07:44.450Z,23.20
2022-09-22T10:10:29.196Z,23.20
2022-09-22T10:13:21.820Z,23.80
2022-09-22T10:16:02.020Z,24.10
2022-09-22T10:18:40.454Z,22.80
2022-09-22T10:21:19.855Z,22.50
2022-09-22T10:23:54.568Z,22.50
2022-09-22T10:26:32.732Z,22.00
2022-09-22T10:29:20.845Z,21.20
2022-09-22T10:32:02.559Z,19.10
2022-09-22T10:34:41.149Z,18.40
2022-09-22T10:37:11.565Z,17.70
2022-09-22T10:39:51.344Z,17.70
2022-09-22T10:42:28.550Z,17.20
2022-09-22T10:45:00.867Z,17.00
2022-09-22T10:47:44.761Z,16.40
2022-09-22T10:50:38.266Z,16.60
2022-09-22T10:53:27.384Z,16.50
2022-09-22T10:56:14.921Z,16.50
2022-09-22T10:58:58.151Z,17.00
2022-09-22T11:01:51.277Z,16.40
2022-09-22T11:04:47.261Z,16.70
2022-09-22T11:07:51.676Z,16.30
2022-09-22T11:10:45.695Z,16.40
2022-09-22T11:14:01.062Z,16.50
2022-09-22T11:16:49.897Z,16.40
2022-09-22T11:19:33.119Z,16.60
2022-09-22T11:22:47.469Z,16.80
2022-09-22T11:25:45.447Z,15.90
2022-09-22T11:29:00.621Z,16.10
2022-09-22T11:31:43.026Z,16.00
2022-09-22T11:34:51.917Z,15.70
2022-09-22T11:37:33.165Z,15.70
2022-09-22T11:40:20.021Z,15.70
2022-09-22T11:43:05.735Z,16.10
2022-09-22T11:45:42.778Z,15.80
2022-09-22T11:48:26.442Z,15.70
2022-09-22T11:51:32.004Z,16.00
2022-09-22T11:54:14.513Z,16.00
2022-09-22T11:56:53.286Z,15.90
2022-09-22T11:59:33.760Z,15.30
2022-09-22T12:02:06.435Z,15.60
2022-09-22T12:04:42.845Z,15.60
2022-09-22T12:07:17.162Z,15.60
2022-09-22T12:09:52.100Z,14.90
2022-09-22T12:12:22.506Z,15.00
2022-09-22T12:14:59.142Z,15.00
2022-09-22T12:17:46.994Z,15.00
2022-09-22T12:20:39.369Z,15.10
2022-09-22T12:23:14.478Z,15.00
2022-09-22T12:25:49.216Z,15.30
2022-09-22T12:28:19.727Z,15.40
2022-09-22T12:31:10.572Z,15.20
2022-09-22T12:33:39.838Z,15.30
2022-09-22T12:36:07.392Z,15.40
2022-09-22T12:38:34.747Z,15.30
2022-09-22T12:41:04.381Z,15.50
2022-09-22T12:43:33.961Z,15.70
2022-09-22T12:46:06.264Z,15.40
2022-09-22T12:48:36.146Z,14.90
2022-09-22T12:51:24.789Z,14.70
2022-09-22T12:54:12.329Z,15.20
2022-09-22T12:56:53.099Z,15.20
2022-09-22T12:59:38.583Z,14.80
2022-09-22T13:02:13.997Z,15.00
2022-09-22T13:04:56.328Z,14.80
2022-09-22T13:07:44.371Z,15.10
2022-09-22T13:10:26.575Z,14.90
2022-09-22T13:13:02.706Z,14.90
2022-09-22T13:15:45.658Z,15.00
2022-09-22T13:18:34.867Z,14.90
2022-09-22T13:21:11.941Z,14.70
2022-09-22T13:23:54.327Z,14.90
2022-09-22T13:26:37.739Z,14.90
2022-09-22T13:29:17.299Z,15.00
2022-09-22T13:31:46.512Z,15.00
2022-09-22T13:34:34.304Z,14.90
2022-09-22T13:37:14.914Z,14.90
2022-09-22T13:39:47.404Z,14.80
2022-09-22T13:42:17.016Z,14.60
2022-09-22T13:44:50.931Z,14.60
2022-09-22T13:47:23.233Z,14.60
2022-09-22T13:49:56.311Z,14.60
2022-09-22T13:52:27.442Z,14.60
2022-09-22T13:54:59.416Z,14.60
2022-09-22T13:57:31.255Z,14.60
2022-09-22T14:00:00.135Z,14.60
2022-09-22T14:02:31.508Z,14.80
2022-09-22T14:05:08.721Z,14.90
2022-09-22T14:07:49.661Z,14.70
2022-09-22T14:10:24.829Z,14.60
2022-09-22T14:12:51.601Z,14.70
2022-09-22T14:15:40.168Z,14.60
2022-09-22T14:18:17.013Z,14.70
2022-09-22T14:20:45.519Z,14.60
2022-09-22T14:23:23.466Z,14.60
2022-09-22T14:25:50.204Z,14.60
2022-09-22T14:28:24.920Z,14.60
2022-09-22T14:30:52.278Z,14.50
2022-09-22T14:33:27.109Z,14.60
2022-09-22T14:36:03.428Z,14.60
2022-09-22T14:38:34.917Z,14.60
2022-09-22T14:41:03.130Z,14.50
2022-09-22T14:43:42.167Z,14.60
2022-09-22T14:46:33.711Z,14.70
2022-09-22T14:49:36.977Z,14.50
2022-09-22T14:52:28.604Z,14.50
2022-09-22T14:54:59.369Z,14.50
2022-09-22T14:57:27.619Z,14.40
2022-09-22T15:00:16.682Z,14.30
2022-09-22T15:02:51.819Z,14.40
2022-09-22T15:05:29.568Z,14.30
2022-09-22T15:07:58.519Z,14.20
2022-09-22T15:10:34.061Z,14.20
2022-09-22T15:13:27.016Z,14.30
2022-09-22T15:15:54.173Z,14.30
2022-09-22T15:18:21.747Z,14.20
2022-09-22T15:20:58.885Z,14.10
2022-09-22T15:23:44.919Z,14.10
2022-09-22T15:26:25.172Z,14.10
2022-09-22T15:28:55.389Z,14.10
2022-09-22T15:31:26.899Z,14.10
2022-09-22T15:34:00.285Z,14.00
2022-09-22T15:36:33.014Z,14.00
2022-09-22T15:39:06.966Z,14.00
2022-09-22T15:41:34.981Z,13.90
2022-09-22T15:44:03.086Z,13.90
2022-09-22T15:46:38.014Z,14.00
2022-09-22T15:49:22.691Z,13.90
2022-09-22T15:51:50.464Z,13.90
2022-09-22T15:54:24.056Z,13.80
2022-09-22T15:56:57.820Z,13.80
2022-09-22T15:59:28.249Z,13.70
2022-09-22T16:01:56.964Z,13.80
2022-09-22T16:04:24.208Z,13.80
2022-09-22T16:07:01.190Z,13.70
2022-09-22T16:09:28.229Z,13.60
2022-09-22T16:11:55.935Z,13.70
2022-09-22T16:14:23.255Z,13.70
2022-09-22T16:16:52.363Z,13.60
2022-09-22T16:19:20.422Z,13.60
2022-09-22T16:21:54.345Z,13.50
2022-09-22T16:24:22.692Z,13.40
2022-09-22T16:26:51.950Z,13.30
2022-09-22T16:29:19.156Z,13.30
2022-09-22T16:31:46.399Z,13.30
2022-09-22T16:34:13.659Z,13.20
2022-09-22T16:36:41.791Z,13.10
2022-09-22T16:39:09.082Z,13.00
2022-09-22T16:41:36.879Z,13.00
2022-09-22T16:44:04.720Z,13.00
2022-09-22T16:46:35.217Z,12.90
2022-09-22T16:49:07.627Z,12.80
2022-09-22T16:51:40.860Z,12.70
2022-09-22T16:54:12.276Z,12.70
2022-09-22T16:56:39.750Z,12.60
2022-09-22T16:59:07.495Z,12.40
2022-09-22T17:01:37.701Z,12.40
2022-09-22T17:04:06.335Z,12.30
2022-09-22T17:06:33.908Z,12.30
2022-09-22T17:09:00.914Z,12.10
2022-09-22T17:11:30.921Z,12.10
2022-09-22T17:14:11.897Z,11.90
2022-09-22T17:16:47.985Z,11.70
2022-09-22T17:19:20.115Z,11.40
2022-09-22T17:21:55.307Z,11.20
2022-09-22T17:24:24.796Z,11.00
2022-09-22T17:26:58.538Z,10.80
2022-09-22T17:29:31.712Z,10.60
2022-09-22T17:32:03.533Z,10.40
2022-09-22T17:34:46.660Z,10.30
2022-09-22T17:37:15.947Z,10.20
2022-09-22T17:39:43.579Z,10.00
2022-09-22T17:42:11.071Z,9.90
2022-09-22T17:44:37.941Z,9.80
2022-09-22T17:47:23.240Z,9.70
2022-09-22T17:50:08.533Z,9.60
2022-09-22T17:52:53.697Z,9.50
2022-09-22T17:55:22.892Z,9.40
2022-09-22T17:57:51.960Z,9.20
2022-09-22T18:00:23.751Z,9.10
2022-09-22T18:02:53.833Z,9.00
2022-09-22T18:05:25.512Z,8.90
2022-09-22T18:07:57.826Z,8.90
2022-09-22T18:10:32.217Z,8.70
2022-09-22T18:12:59.713Z,8.70
2022-09-22T18:15:28.109Z,8.70
2022-09-22T18:17:57.702Z,8.60
2022-09-22T18:20:25.337Z,8.50
2022-09-22T18:22:52.249Z,8.40
2022-09-22T18:25:19.764Z,8.30
2022-09-22T18:27:48.485Z,8.20
2022-09-22T18:30:17.050Z,8.40
2022-09-22T18:32:44.028Z,8.20
2022-09-22T18:35:12.847Z,8.20
2022-09-22T18:37:39.982Z,8.00
2022-09-22T18:40:08.079Z,7.90
2022-09-22T18:42:36.620Z,7.80
2022-09-22T18:45:04.089Z,7.80
2022-09-22T18:47:30.925Z,7.70
2022-09-22T18:49:59.192Z,7.60
2022-09-22T18:52:26.078Z,7.60
2022-09-22T18:54:54.325Z,7.50
2022-09-22T18:57:22.882Z,7.50
2022-09-22T18:59:51.466Z,7.50
2022-09-22T19:02:21.368Z,7.40
2022-09-22T19:04:49.285Z,7.30
2022-09-22T19:07:38.917Z,7.20
2022-09-22T19:10:09.504Z,7.10
2022-09-22T19:12:39.319Z,7.10
2022-09-22T19:15:16.617Z,7.10
2022-09-22T19:17:47.832Z,7.00
2022-09-22T19:20:21.478Z,7.00
2022-09-22T19:22:50.846Z,6.90
2022-09-22T19:25:22.078Z,6.90
2022-09-22T19:27:51.230Z,6.80
2022-09-22T19:30:22.895Z,6.70
2022-09-22T19:32:57.809Z,6.70
2022-09-22T19:35:26.292Z,6.60
2022-09-22T19:37:59.378Z,6.60
2022-09-22T19:40:27.255Z,6.70
2022-09-22T19:42:55.525Z,6.60
2022-09-22T19:45:25.313Z,6.60
2022-09-22T19:47:57.303Z,6.50
2022-09-22T19:50:26.450Z,6.60
2022-09-22T19:52:54.344Z,6.60
2022-09-22T19:55:23.344Z,6.40
2022-09-22T19:57:52.656Z,6.40
2022-09-22T20:00:27.004Z,6.30
2022-09-22T20:03:00.950Z,6.20
2022-09-22T20:05:34.073Z,6.20
2022-09-22T20:08:01.735Z,6.10
2022-09-22T20:10:31.961Z,6.10
2022-09-22T20:12:59.927Z,6.10
2022-09-22T20:15:48.037Z,6.10
2022-09-22T20:18:15.761Z,6.20
2022-09-22T20:20:45.179Z,6.10
2022-09-22T20:23:21.091Z,6.10
2022-09-22T20:25:52.622Z,6.10
2022-09-22T20:28:21.329Z,6.10
2022-09-22T20:30:53.434Z,6.00
2022-09-22T20:33:24.638Z,5.90
2022-09-22T20:35:55.788Z,5.80
2022-09-22T20:38:26.621Z,5.80
2022-09-22T20:40:54.373Z,5.70
2022-09-22T20:43:21.993Z,5.60
2022-09-22T20:45:49.920Z,5.70
2022-09-22T20:48:23.508Z,5.80
2022-09-22T20:50:58.642Z,5.60
2022-09-22T20:53:29.996Z,5.50
2022-09-22T20:56:08.525Z,5.50
2022-09-22T20:58:50.815Z,5.40
2022-09-22T21:01:19.155Z,5.40
2022-09-22T21:03:47.262Z,5.30
2022-09-22T21:06:16.306Z,5.30
2022-09-22T21:09:03.277Z,5.20
2022-09-22T21:11:31.251Z,5.10
2022-09-22T21:14:05.888Z,5.10
2022-09-22T21:16:37.585Z,5.10
2022-09-22T21:19:04.715Z,5.10
2022-09-22T21:21:32.989Z,5.40
2022-09-22T21:24:09.532Z,5.20
2022-09-22T21:26:37.487Z,5.10
2022-09-22T21:29:05.467Z,5.10
2022-09-22T21:31:33.597Z,5.50
2022-09-22T21:34:00.715Z,5.20
2022-09-22T21:36:27.638Z,5.10
2022-09-22T21:38:57.236Z,4.90
2022-09-22T21:41:27.304Z,4.90
2022-09-22T21:43:55.166Z,4.90
2022-09-22T21:46:29.790Z,5.00
2022-09-22T21:49:00.858Z,5.40
2022-09-22T21:51:30.390Z,5.10
2022-09-22T21:53:58.879Z,4.90
2022-09-22T21:56:27.364Z,4.80
2022-09-22T21:58:56.408Z,4.60
2022-09-22T22:01:26.399Z,4.50
2022-09-22T22:03:57.014Z,4.50
2022-09-22T22:06:33.027Z,4.40
2022-09-22T22:09:04.885Z,4.40
2022-09-22T22:11:38.323Z,4.40
2022-09-22T22:14:08.827Z,4.40
2022-09-22T22:16:38.873Z,4.50
2022-09-22T22:19:08.585Z,4.60
2022-09-22T22:21:37.139Z,4.50
2022-09-22T22:24:14.535Z,4.30
2022-09-22T22:26:43.586Z,4.30
2022-09-22T22:29:14.464Z,4.20
2022-09-22T22:31:42.683Z,4.20
2022-09-22T22:34:12.945Z,4.40
2022-09-22T22:36:41.546Z,5.10
2022-09-22T22:39:13.308Z,5.10
2022-09-22T22:41:44.959Z,4.50
2022-09-22T22:44:17.004Z,4.30
2022-09-22T22:46:45.682Z,4.50
2022-09-22T22:49:14.279Z,4.20
2022-09-22T22:51:43.575Z,4.00
2022-09-22T22:54:12.298Z,4.00
2022-09-22T22:56:42.844Z,4.00
2022-09-22T22:59:12.125Z,3.90
2022-09-22T23:01:40.785Z,4.00
2022-09-22T23:04:10.726Z,4.00
2022-09-22T23:06:44.591Z,4.70
2022-09-22T23:09:15.480Z,4.70
2022-09-22T23:11:44.165Z,4.30
2022-09-22T23:14:13.222Z,4.00
2022-09-22T23:16:45.871Z,3.90
2022-09-22T23:19:18.504Z,3.80
2022-09-22T23:21:46.463Z,3.70
2022-09-22T23:24:16.688Z,3.60
2022-09-22T23:26:45.587Z,3.70
2022-09-22T23:29:12.973Z,4.00
2022-09-22T23:31:39.815Z,4.00
2022-09-22T23:34:06.902Z,3.70
2022-09-22T23:36:33.736Z,3.50
2022-09-22T23:39:04.127Z,3.60
2022-09-22T23:41:36.385Z,3.60
2022-09-22T23:44:06.828Z,3.50
2022-09-22T23:46:34.314Z,3.30
2022-09-22T23:49:01.262Z,3.20
2022-09-22T23:51:28.369Z,3.20
2022-09-22T23:53:56.199Z,3.20
2022-09-22T23:56:23.616Z,3.20
2022-09-22T23:58:53.960Z,3.30
